05:03
Airports
History
Links
Donate
Help keep this website running!
PayPal
Bitcoin
This page is community maintained. The information is intended for PC simulator navigation or reference.
Always use approved charts for navigation.
AK80
American Creek
American Creek (AK80)
American Creek, Alaska, United States
4
Lat/Lng:65° 6' 6.19" N / 151° 10' 38.93" W
65.101719 / -151.17748
Elevation:500'ft / 152mMSL
ID / ICAO:AK80
Runways:1
Longest:02-20
Gravel 547m / 1,795ft
Nearby Weather02:55 GMT 2014-05-01
Nearby weather at PAML, Manley Hot Springs located 17.3 nautical miles from AK80
Altimeter: 30.41
Visibility: 10.0 statute miles
Wind: 0 knots (from 000°)
Temp: 15°c / 59°f
Humidity: 41.4%

METAR: PAML 010255Z 00000KT 10SM SCT080 BKN200 15/02 A3041 RMK 401561022 NOSPECI LAST

(Powered by phpweather)
Nearby VORs <50NM
Nearby NDBs
Runway 02 / 20
Dimensions:547.2 x 30.5m 1795' x 100'ft
Surface:Gravel
Runway 02 [A]Runway 20 [B]
Heading:046°TH 226°TH
Lat:
Lng:
65° 6' 0.01"N
151° 10' 54.11"W
65° 6' 12.36"N
151° 10' 23.74"W
User Notes and Comments
65° 6' 6.19" N / 151° 10' 38.93" W
Distance To
Airport ID:
Nearby Airports
4 American Creek 0.0 NM
80A W 270°
4 Manley Hot Springs 17.3 NM
PAML ( WX ) ESE 116°
4 Ralph M Calhoun Memorial 27.5 NM
PATA ( WX ) W 280°
4 Eureka Creek 28.3 NM
2Z2 E 79°
4 Rampart 41.0 NM
RMP NE 46°
4 Minto Al Wright 52.7 NM
51Z E 86°
4 Five Mile 68.7 NM
PAFV NNE 33°
VFR Chart
Flight Planning at SkyVector.com